createdAt,value
2014-09-15T04:58:15.432Z,21.5
2014-09-15T05:07:16.088Z,21.4
2014-09-15T05:14:16.635Z,21.4
2014-09-15T05:22:17.227Z,21.4
2014-09-15T05:32:17.934Z,21.4
2014-09-15T05:40:18.527Z,21.4
2014-09-15T05:49:19.186Z,21.4
2014-09-15T05:58:19.827Z,21.4
2014-09-15T06:07:20.486Z,21.4
2014-09-15T06:17:21.254Z,21.4
2014-09-15T06:27:22.207Z,21.4
2014-09-15T06:35:22.830Z,21.4
2014-09-15T06:42:23.379Z,21.4
2014-09-15T06:49:23.926Z,21.4
2014-09-15T06:54:24.374Z,21.4
2014-09-15T07:01:24.917Z,21.4
2014-09-15T07:09:25.527Z,21.4
2014-09-15T07:17:26.120Z,21.4
2014-09-15T07:23:26.616Z,21.4
2014-09-15T07:32:27.275Z,21.4
2014-09-15T07:38:27.754Z,21.4
2014-09-15T07:44:28.250Z,21.4
2014-09-15T07:54:28.957Z,21.4
2014-09-15T08:01:29.507Z,21.4
2014-09-15T08:09:30.110Z,21.5
2014-09-15T08:18:30.753Z,21.5
2014-09-15T08:28:31.457Z,21.4
2014-09-15T08:36:32.052Z,21.4
2014-09-15T08:45:32.710Z,21.5
2014-09-15T08:53:33.305Z,21.4
2014-09-15T08:59:33.800Z,21.5
2014-09-15T09:15:49.894Z,21.4
2014-09-15T09:24:50.536Z,21.4
2014-09-15T09:32:51.145Z,21.6
2014-09-15T09:48:49.676Z,21.6
2014-09-15T09:58:50.382Z,21.6
2014-09-15T10:06:50.991Z,21.7
2014-09-15T10:16:51.698Z,21.7
2014-09-15T10:24:52.291Z,21.7
2014-09-15T10:34:52.998Z,21.7
2014-09-15T10:44:53.704Z,21.8
2014-09-15T10:52:54.314Z,21.8
2014-09-15T11:03:06.521Z,21.9
2014-09-15T11:12:07.179Z,21.9
2014-09-15T11:21:07.836Z,22
2014-09-15T11:31:08.543Z,21.9
2014-09-15T11:39:09.152Z,22
2014-09-15T11:49:09.860Z,22
2014-09-15T11:57:10.469Z,22
2014-09-15T12:05:11.063Z,22
2014-09-15T12:14:11.720Z,22.1
2014-09-15T12:22:12.330Z,22.1
2014-09-15T12:31:12.989Z,22.1
2014-09-15T12:40:13.646Z,22.1
2014-09-15T12:49:14.303Z,22.1
2014-09-15T12:59:15.010Z,22.1
2014-09-15T13:07:15.619Z,22.1
2014-09-15T13:20:31.378Z,22.1
2014-09-15T13:28:31.988Z,22.1
2014-09-15T13:37:32.648Z,22.2
2014-09-15T13:45:33.255Z,22.1
2014-09-15T13:51:33.750Z,22.2
2014-09-15T13:57:34.248Z,22.2
2014-09-15T14:07:34.956Z,22.2
2014-09-15T14:16:35.629Z,22.3
2014-09-15T14:25:36.271Z,22.2
2014-09-15T14:33:36.880Z,22.3
2014-09-15T14:41:37.490Z,22.3
2014-09-15T14:49:38.098Z,22.3
2014-09-15T14:55:38.594Z,22.3
2014-09-15T15:03:39.203Z,22.3
2014-09-15T15:11:39.812Z,22.3
2014-09-15T15:20:40.471Z,22.4
2014-09-15T15:28:41.291Z,22.4
2014-09-15T15:37:42.019Z,22.4
2014-09-15T15:44:42.589Z,22.4
2014-09-15T15:50:43.086Z,22.4
2014-09-15T16:00:43.794Z,22.3
2014-09-15T16:08:44.402Z,22.3
2014-09-15T16:16:45.012Z,22.4
2014-09-15T16:23:45.572Z,22.3
2014-09-15T16:32:46.230Z,22.3
2014-09-15T16:41:46.889Z,22.4
2014-09-15T16:47:47.384Z,22.4
2014-09-15T16:53:47.880Z,22.4
2014-09-15T17:01:48.490Z,22.4
2014-09-15T17:10:49.148Z,22.3
2014-09-15T17:19:49.805Z,22.3
2014-09-15T17:26:50.365Z,22.3
2014-09-15T17:34:50.975Z,22.3
2014-09-15T17:42:51.568Z,22.2
2014-09-15T17:50:52.177Z,22.2
2014-09-15T17:57:52.738Z,22.2
2014-09-15T18:05:53.346Z,22.2
2014-09-15T18:13:53.941Z,22.2
2014-09-15T18:20:54.500Z,22.2
2014-09-15T18:28:55.109Z,22.2
2014-09-15T18:36:55.703Z,22.2
2014-09-15T18:43:56.263Z,22.1
2014-09-15T18:51:56.873Z,22.1
2014-09-15T18:58:57.417Z,22.1
2014-09-15T19:05:57.977Z,22.1
2014-09-15T19:13:58.586Z,22.1
2014-09-15T19:22:59.244Z,22.1
2014-09-15T19:31:59.903Z,22.1
2014-09-15T19:40:00.496Z,22.1
2014-09-15T19:48:01.105Z,22.1
2014-09-15T19:57:01.763Z,22.1
2014-09-15T20:05:02.372Z,22.1
2014-09-15T20:13:02.965Z,22.1
2014-09-15T20:22:03.624Z,22.1
2014-09-15T20:30:04.232Z,22.1
2014-09-15T20:38:04.842Z,22
